createdAt,value
2018-06-29T00:00:12.533Z,100441.13
2018-06-29T00:02:41.227Z,100434.48
2018-06-29T00:05:10.127Z,100436.77
2018-06-29T00:07:39.018Z,100438.34
2018-06-29T00:10:07.512Z,100435.27
2018-06-29T00:12:36.052Z,100436.77
2018-06-29T00:15:06.000Z,100442.77
2018-06-29T00:17:34.517Z,100435.55
2018-06-29T00:20:02.967Z,100444.63
2018-06-29T00:22:31.374Z,100443.32
2018-06-29T00:24:59.930Z,100442.55
2018-06-29T00:27:28.524Z,100442.11
2018-06-29T00:29:57.040Z,100443.27
2018-06-29T00:32:25.410Z,100442.75
2018-06-29T00:34:54.050Z,100445.05
2018-06-29T00:37:24.530Z,100444.17
2018-06-29T00:39:55.582Z,100444.75
2018-06-29T00:42:25.123Z,100448.96
2018-06-29T00:44:53.680Z,100450.39
2018-06-29T00:47:22.111Z,100454.82
2018-06-29T00:49:50.677Z,100452.94
2018-06-29T00:52:24.186Z,100453.94
2018-06-29T00:54:52.550Z,100459.64
2018-06-29T00:57:21.000Z,100467.72
2018-06-29T00:59:49.368Z,100464.20
2018-06-29T01:02:17.809Z,100454.50
2018-06-29T01:04:46.295Z,100465.34
2018-06-29T01:07:14.768Z,100461.27
2018-06-29T01:09:43.477Z,100456.80
2018-06-29T01:12:12.005Z,100455.14
2018-06-29T01:14:40.382Z,100456.48
2018-06-29T01:17:08.794Z,100450.16
2018-06-29T01:19:37.430Z,100453.86
2018-06-29T01:22:05.886Z,100448.03
2018-06-29T01:24:34.233Z,100445.52
2018-06-29T01:27:02.612Z,100440.45
2018-06-29T01:29:30.961Z,100439.46
2018-06-29T01:31:59.339Z,100439.84
2018-06-29T01:34:27.828Z,100439.27
2018-06-29T01:36:56.176Z,100438.27
2018-06-29T01:39:24.972Z,100434.56
2018-06-29T01:41:53.430Z,100435.47
2018-06-29T01:44:21.806Z,100431.27
2018-06-29T01:46:50.266Z,100433.21
2018-06-29T01:49:18.541Z,100428.38
2018-06-29T01:51:47.345Z,100434.84
2018-06-29T01:54:15.711Z,100432.19
2018-06-29T01:56:44.318Z,100434.62
2018-06-29T01:59:13.310Z,100437.02
2018-06-29T02:01:41.892Z,100429.53
2018-06-29T02:04:10.271Z,100429.16
2018-06-29T02:06:38.745Z,100426.23
2018-06-29T02:09:08.535Z,100423.11
2018-06-29T02:11:46.389Z,100420.59
2018-06-29T02:14:14.743Z,100414.95
2018-06-29T02:16:43.454Z,100416.48
2018-06-29T02:19:11.915Z,100410.56
2018-06-29T02:21:45.332Z,100413.09
2018-06-29T02:24:13.733Z,100404.11
2018-06-29T02:26:42.428Z,100404.56
2018-06-29T02:29:10.903Z,100393.73
2018-06-29T02:31:44.226Z,100396.57
2018-06-29T02:34:12.877Z,100394.09
2018-06-29T02:36:41.362Z,100392.75
2018-06-29T02:39:11.406Z,100392.39
2018-06-29T02:41:44.876Z,100398.93
2018-06-29T02:44:13.214Z,100403.34
2018-06-29T02:46:41.922Z,100407.67
2018-06-29T02:49:10.692Z,100409.25
2018-06-29T02:51:39.238Z,100415.30
2018-06-29T02:54:07.601Z,100405.32
2018-06-29T02:56:35.972Z,100410.37
2018-06-29T02:59:04.378Z,100410.56
2018-06-29T03:01:32.770Z,100409.98
2018-06-29T03:04:01.219Z,100404.15
2018-06-29T03:06:29.695Z,100403.74
2018-06-29T03:08:58.220Z,100395.48
2018-06-29T03:11:26.689Z,100404.13
2018-06-29T03:13:55.068Z,100401.95
2018-06-29T03:16:23.532Z,100406.23
2018-06-29T03:18:51.953Z,100405.78
2018-06-29T03:21:25.397Z,100404.11
2018-06-29T03:23:54.054Z,100412.48
2018-06-29T03:26:22.494Z,100405.72
2018-06-29T03:28:50.975Z,100409.58
2018-06-29T03:31:19.688Z,100416.56
2018-06-29T03:33:48.215Z,100412.87
2018-06-29T03:36:16.695Z,100413.86
2018-06-29T03:38:45.183Z,100416.98
2018-06-29T03:41:13.645Z,100412.34
2018-06-29T03:43:42.025Z,100407.44
2018-06-29T03:46:10.517Z,100411.50
2018-06-29T03:48:38.953Z,100408.16
2018-06-29T03:51:07.413Z,100406.71
2018-06-29T03:53:35.865Z,100401.20
2018-06-29T03:56:04.317Z,100403.72
2018-06-29T03:58:32.713Z,100398.72
2018-06-29T04:01:01.216Z,100401.88
2018-06-29T04:03:29.676Z,100401.01
2018-06-29T04:05:59.061Z,100401.20
2018-06-29T04:08:27.419Z,100405.62
2018-06-29T04:10:55.845Z,100409.41
2018-06-29T04:13:24.273Z,100404.45
2018-06-29T04:15:52.739Z,100406.29
2018-06-29T04:18:21.131Z,100406.06
2018-06-29T04:21:03.381Z,100409.00
2018-06-29T04:23:32.114Z,100404.58
2018-06-29T04:26:00.517Z,100408.77
2018-06-29T04:28:29.129Z,100405.75
2018-06-29T04:30:57.719Z,100410.39
2018-06-29T04:33:26.039Z,100406.20
2018-06-29T04:35:54.389Z,100407.10
2018-06-29T04:38:22.839Z,100404.39
2018-06-29T04:40:51.514Z,100404.66
2018-06-29T04:43:19.964Z,100400.24
2018-06-29T04:45:48.367Z,100397.34
2018-06-29T04:48:16.789Z,100399.56
2018-06-29T04:50:45.305Z,100404.14
2018-06-29T04:53:13.780Z,100400.98
2018-06-29T04:55:42.109Z,100390.36
2018-06-29T04:58:11.877Z,100395.18
2018-06-29T05:00:40.411Z,100390.64
2018-06-29T05:03:08.799Z,100389.23
2018-06-29T05:05:37.229Z,100387.64
2018-06-29T05:08:05.551Z,100391.16
2018-06-29T05:10:33.957Z,100394.20
2018-06-29T05:13:02.332Z,100407.60
2018-06-29T05:15:31.711Z,100400.61
2018-06-29T05:18:00.068Z,100412.33
2018-06-29T05:20:28.401Z,100413.20
2018-06-29T05:22:56.859Z,100407.77
2018-06-29T05:25:25.335Z,100421.26
2018-06-29T05:27:53.925Z,100415.50
2018-06-29T05:30:22.777Z,100419.45
2018-06-29T05:32:51.203Z,100415.63
2018-06-29T05:35:19.765Z,100419.71
2018-06-29T05:37:48.268Z,100419.06
2018-06-29T05:40:16.837Z,100416.16
2018-06-29T05:42:45.390Z,100416.61
2018-06-29T05:45:13.729Z,100415.45
2018-06-29T05:47:42.310Z,100414.75
2018-06-29T05:50:10.897Z,100425.22
2018-06-29T05:52:39.469Z,100425.09
2018-06-29T05:55:07.927Z,100424.41
2018-06-29T05:57:36.317Z,100428.77
2018-06-29T06:00:05.626Z,100433.82
2018-06-29T06:02:34.168Z,100437.20
2018-06-29T06:05:02.530Z,100439.43
2018-06-29T06:07:30.979Z,100438.62
2018-06-29T06:09:59.522Z,100443.03
2018-06-29T06:12:27.938Z,100434.80
2018-06-29T06:14:56.669Z,100437.95
2018-06-29T06:17:25.115Z,100431.16
2018-06-29T06:20:02.288Z,100441.05
2018-06-29T06:22:30.810Z,100438.44
2018-06-29T06:24:59.392Z,100440.02
2018-06-29T06:27:27.920Z,100436.34
2018-06-29T06:29:56.678Z,100430.92
2018-06-29T06:32:25.327Z,100434.44
2018-06-29T06:34:53.686Z,100440.72
2018-06-29T06:37:22.140Z,100442.94
2018-06-29T06:39:50.830Z,100445.16
2018-06-29T06:42:19.272Z,100451.34
2018-06-29T06:44:47.647Z,100449.50
2018-06-29T06:47:16.126Z,100448.59
2018-06-29T06:49:44.757Z,100443.95
2018-06-29T06:52:13.206Z,100442.91
2018-06-29T06:54:41.690Z,100441.07
2018-06-29T06:57:10.112Z,100447.02
2018-06-29T06:59:38.616Z,100446.09
2018-06-29T07:02:07.282Z,100451.14
2018-06-29T07:04:35.882Z,100450.68
2018-06-29T07:07:04.612Z,100445.77
2018-06-29T07:09:33.192Z,100448.98
2018-06-29T07:12:01.802Z,100449.42
2018-06-29T07:14:30.315Z,100443.38
2018-06-29T07:16:58.838Z,100443.11
2018-06-29T07:19:27.736Z,100446.53
2018-06-29T07:21:57.182Z,100427.73
2018-06-29T07:24:27.046Z,100421.48
2018-06-29T07:26:56.160Z,100426.42
2018-06-29T07:29:24.892Z,100418.70
2018-06-29T07:31:54.290Z,100417.06
2018-06-29T07:34:23.102Z,100409.53
2018-06-29T07:36:53.914Z,100414.16
2018-06-29T07:39:22.700Z,100408.38
2018-06-29T07:42:01.036Z,100410.06
2018-06-29T07:44:29.910Z,100405.48
2018-06-29T07:46:59.556Z,100408.48
2018-06-29T07:49:28.694Z,100400.42
2018-06-29T07:52:08.348Z,100394.00
2018-06-29T07:54:38.899Z,100391.35
2018-06-29T07:57:07.606Z,100384.45
2018-06-29T07:59:36.858Z,100385.87
2018-06-29T08:02:05.450Z,100385.66
2018-06-29T08:04:34.026Z,100389.21
2018-06-29T08:07:04.167Z,100386.41
2018-06-29T08:09:33.064Z,100380.68
2018-06-29T08:12:02.146Z,100370.88
2018-06-29T08:14:30.751Z,100381.23
2018-06-29T08:16:59.929Z,100367.35
2018-06-29T08:19:29.177Z,100370.83
2018-06-29T08:21:59.187Z,100370.09
2018-06-29T08:24:32.120Z,100373.27
2018-06-29T08:27:00.911Z,100370.44
2018-06-29T08:29:29.613Z,100369.52
2018-06-29T08:31:58.297Z,100373.22
2018-06-29T08:34:27.219Z,100366.80
2018-06-29T08:36:56.350Z,100354.97
2018-06-29T08:39:25.026Z,100359.53
2018-06-29T08:44:47.718Z,100348.52
2018-06-29T08:47:16.500Z,100359.50
2018-06-29T08:49:45.151Z,100360.32
2018-06-29T08:52:14.339Z,100364.39
2018-06-29T08:54:43.001Z,100367.11
2018-06-29T08:57:12.113Z,100364.83
2018-06-29T08:59:41.687Z,100365.11
2018-06-29T09:02:12.981Z,100357.77
2018-06-29T09:04:43.063Z,100354.88
2018-06-29T09:07:14.641Z,100347.81
2018-06-29T09:12:30.693Z,100348.91
2018-06-29T09:15:05.658Z,100343.89
2018-06-29T09:17:35.487Z,100348.68
2018-06-29T09:20:06.549Z,100341.72
2018-06-29T09:22:43.182Z,100344.16
2018-06-29T09:25:11.674Z,100334.55
2018-06-29T09:27:46.977Z,100342.50
2018-06-29T09:30:16.562Z,100352.34
2018-06-29T09:32:48.040Z,100350.37
2018-06-29T09:35:16.641Z,100339.61
2018-06-29T09:37:45.488Z,100334.22
2018-06-29T09:40:13.993Z,100321.24
2018-06-29T09:42:42.472Z,100324.67
2018-06-29T09:45:11.263Z,100326.67
2018-06-29T09:47:39.738Z,100318.33
2018-06-29T09:50:08.321Z,100317.21
2018-06-29T09:52:37.128Z,100317.66
2018-06-29T09:55:06.010Z,100307.64
2018-06-29T09:57:34.534Z,100309.83
2018-06-29T10:00:03.180Z,100310.86
2018-06-29T10:02:39.095Z,100310.00
2018-06-29T10:05:00.058Z,100306.16
2018-06-29T10:07:28.924Z,100300.00
2018-06-29T10:09:57.605Z,100305.89
2018-06-29T10:12:26.052Z,100301.86
2018-06-29T10:14:54.594Z,100302.63
2018-06-29T10:17:23.056Z,100293.14
2018-06-29T10:19:51.680Z,100294.34
2018-06-29T10:22:20.010Z,100293.77
2018-06-29T10:24:48.377Z,100295.34
2018-06-29T10:27:17.777Z,100289.50
2018-06-29T10:29:47.009Z,100289.31
2018-06-29T10:32:15.478Z,100283.69
2018-06-29T10:34:43.887Z,100280.75
2018-06-29T10:37:12.342Z,100279.84
2018-06-29T10:39:40.778Z,100275.74
2018-06-29T10:42:09.533Z,100274.94
2018-06-29T10:44:37.955Z,100273.55
2018-06-29T10:47:06.431Z,100269.85
2018-06-29T10:49:34.917Z,100258.92
2018-06-29T10:52:03.353Z,100269.05
2018-06-29T10:54:31.890Z,100270.41
2018-06-29T10:57:00.303Z,100275.11
2018-06-29T10:59:28.696Z,100268.03
2018-06-29T11:01:57.224Z,100263.92
2018-06-29T11:04:25.646Z,100255.27
2018-06-29T11:06:54.292Z,100255.25
2018-06-29T11:09:22.672Z,100249.36
2018-06-29T11:11:51.121Z,100244.25
2018-06-29T11:14:19.497Z,100248.83
2018-06-29T11:16:47.862Z,100248.39
2018-06-29T11:19:16.277Z,100246.00
2018-06-29T11:21:44.719Z,100239.39
2018-06-29T11:24:13.239Z,100243.42
2018-06-29T11:26:42.387Z,100240.03
2018-06-29T11:29:10.784Z,100234.41
2018-06-29T11:31:39.413Z,100241.41
2018-06-29T11:34:07.932Z,100234.17
2018-06-29T11:36:36.297Z,100227.64
2018-06-29T11:39:07.114Z,100220.66
2018-06-29T11:41:35.523Z,100221.14
2018-06-29T11:44:03.949Z,100223.82
2018-06-29T11:46:32.652Z,100217.41
2018-06-29T11:49:01.062Z,100215.16
2018-06-29T11:51:29.730Z,100211.80
2018-06-29T11:53:58.054Z,100207.45
2018-06-29T11:56:26.409Z,100207.33
2018-06-29T11:58:55.167Z,100195.91
2018-06-29T12:01:23.598Z,100196.83
2018-06-29T12:03:52.272Z,100205.02
2018-06-29T12:06:20.698Z,100191.58
2018-06-29T12:08:49.077Z,100192.06
2018-06-29T12:11:17.473Z,100183.84
2018-06-29T12:13:45.934Z,100191.27
2018-06-29T12:16:14.305Z,100184.49
2018-06-29T12:18:42.689Z,100179.95
2018-06-29T12:21:11.140Z,100185.19
2018-06-29T12:23:39.762Z,100175.14
2018-06-29T12:26:08.170Z,100176.88
2018-06-29T12:28:36.575Z,100172.36
2018-06-29T12:31:05.056Z,100165.97
2018-06-29T12:33:33.421Z,100164.08
2018-06-29T12:36:01.762Z,100161.66
2018-06-29T12:38:30.119Z,100164.66
2018-06-29T12:40:58.561Z,100158.71
2018-06-29T12:43:26.925Z,100148.86
2018-06-29T12:45:55.358Z,100142.17
2018-06-29T12:48:23.692Z,100145.98
2018-06-29T12:50:52.122Z,100136.93
2018-06-29T12:53:20.518Z,100131.94
2018-06-29T12:55:49.051Z,100134.51
2018-06-29T12:58:17.414Z,100134.91
2018-06-29T13:00:45.806Z,100125.06
2018-06-29T13:03:14.385Z,100122.59
2018-06-29T13:05:42.919Z,100114.23
2018-06-29T13:08:11.289Z,100107.28
2018-06-29T13:10:39.862Z,100116.30
2018-06-29T13:13:08.263Z,100105.11
2018-06-29T13:15:37.089Z,100112.90
2018-06-29T13:18:05.529Z,100112.11
2018-06-29T13:20:33.905Z,100106.48
2018-06-29T13:23:02.446Z,100100.73
2018-06-29T13:25:30.819Z,100102.48
2018-06-29T13:27:59.915Z,100096.96
2018-06-29T13:30:29.288Z,100094.72
2018-06-29T13:32:57.699Z,100096.17
2018-06-29T13:35:26.061Z,100086.97
2018-06-29T13:37:54.455Z,100088.47
2018-06-29T13:40:22.901Z,100085.03
2018-06-29T13:42:51.332Z,100079.34
2018-06-29T13:45:19.715Z,100078.41
2018-06-29T13:47:48.049Z,100069.80
2018-06-29T13:50:16.387Z,100066.66
2018-06-29T13:52:44.963Z,100061.27
2018-06-29T13:55:13.376Z,100058.75
2018-06-29T13:57:41.741Z,100059.48
2018-06-29T14:00:10.224Z,100051.77
2018-06-29T14:02:38.709Z,100060.45
2018-06-29T14:05:07.255Z,100057.09
2018-06-29T14:07:35.655Z,100058.47
2018-06-29T14:10:04.145Z,100056.77
2018-06-29T14:12:32.620Z,100052.08
2018-06-29T14:15:01.268Z,100054.70
2018-06-29T14:17:29.723Z,100042.65
2018-06-29T14:19:58.226Z,100051.11
2018-06-29T14:22:26.851Z,100045.29
2018-06-29T14:24:55.225Z,100048.53
2018-06-29T14:30:09.521Z,100047.83
2018-06-29T14:32:38.269Z,100047.42
2018-06-29T14:35:06.770Z,100045.03
2018-06-29T14:37:35.281Z,100042.16
2018-06-29T14:40:03.667Z,100033.27
2018-06-29T14:42:32.236Z,100037.66
2018-06-29T14:45:00.580Z,100045.90
2018-06-29T14:47:28.897Z,100029.41
2018-06-29T14:49:57.709Z,100032.77
2018-06-29T14:52:26.276Z,100023.22
2018-06-29T14:54:54.670Z,100024.49
2018-06-29T14:57:23.148Z,100019.80
2018-06-29T14:59:51.533Z,100017.76
2018-06-29T15:02:19.909Z,100010.76
2018-06-29T15:04:48.389Z,100013.80
2018-06-29T15:07:16.881Z,100008.67
2018-06-29T15:09:45.276Z,100005.52
2018-06-29T15:12:17.197Z,100008.00
2018-06-29T15:14:45.545Z,100013.47
2018-06-29T15:17:13.979Z,100012.39
2018-06-29T15:19:42.433Z,100009.65
2018-06-29T15:22:10.930Z,100006.20
2018-06-29T15:24:39.529Z,100014.31
2018-06-29T15:27:08.631Z,100003.79
2018-06-29T15:29:50.055Z,100005.19
2018-06-29T15:32:18.656Z,99999.08
2018-06-29T15:34:47.381Z,99997.72
2018-06-29T15:37:15.736Z,99998.48
2018-06-29T15:39:44.154Z,100001.75
2018-06-29T15:42:12.873Z,99999.62
2018-06-29T15:44:41.225Z,100000.39
2018-06-29T15:47:09.608Z,100002.05
2018-06-29T15:49:38.020Z,100007.04
2018-06-29T15:52:06.464Z,99998.29
2018-06-29T15:54:34.803Z,100003.28
2018-06-29T15:57:03.248Z,100002.68
2018-06-29T15:59:31.631Z,99997.43
2018-06-29T16:02:00.057Z,99997.02
2018-06-29T16:04:28.463Z,100000.31
2018-06-29T16:06:58.139Z,99996.92
2018-06-29T16:09:26.618Z,99995.50
2018-06-29T16:11:56.122Z,99996.31
2018-06-29T16:14:24.439Z,99994.22
2018-06-29T16:16:53.161Z,99991.34
2018-06-29T16:19:21.627Z,99986.77
2018-06-29T16:21:50.343Z,99985.86
2018-06-29T16:24:19.667Z,99985.70
2018-06-29T16:26:48.093Z,99984.42
2018-06-29T16:29:16.787Z,99984.16
2018-06-29T16:31:45.205Z,99981.55
2018-06-29T16:34:13.886Z,99993.08
2018-06-29T16:36:42.242Z,99983.00
2018-06-29T16:39:12.499Z,99982.05
2018-06-29T16:41:41.453Z,99975.70
2018-06-29T16:44:10.158Z,99983.95
2018-06-29T16:46:38.527Z,99979.54
2018-06-29T16:49:07.059Z,99990.11
2018-06-29T16:51:36.070Z,99980.06
2018-06-29T16:54:04.610Z,99986.98
2018-06-29T16:56:33.009Z,99980.74
2018-06-29T16:59:01.456Z,99985.14
2018-06-29T17:01:35.071Z,99981.64
2018-06-29T17:04:03.687Z,99982.81
2018-06-29T17:06:32.153Z,99975.41
2018-06-29T17:09:00.623Z,99975.69
2018-06-29T17:11:29.075Z,99971.75
2018-06-29T17:13:57.623Z,99972.58
2018-06-29T17:16:26.305Z,99969.68
2018-06-29T17:18:56.282Z,99971.49
2018-06-29T17:21:26.425Z,99970.53
2018-06-29T17:23:54.854Z,99968.95
2018-06-29T17:26:23.241Z,99967.39
2018-06-29T17:28:54.678Z,99968.59
2018-06-29T17:31:23.321Z,99971.84
2018-06-29T17:33:51.856Z,99975.56
2018-06-29T17:36:20.261Z,99975.98
2018-06-29T17:38:48.764Z,99978.94
2018-06-29T17:41:17.221Z,99978.20
2018-06-29T17:43:45.661Z,99978.20
2018-06-29T17:46:14.169Z,99980.01
2018-06-29T17:48:42.931Z,99989.83
2018-06-29T17:51:11.719Z,99985.16
2018-06-29T17:53:40.453Z,99986.52
2018-06-29T17:56:08.831Z,99991.61
2018-06-29T17:58:37.311Z,99989.91
2018-06-29T18:01:10.913Z,99989.73
2018-06-29T18:03:39.359Z,99993.64
2018-06-29T18:06:07.802Z,99994.48
2018-06-29T18:08:36.327Z,99989.83
2018-06-29T18:11:04.787Z,99988.75
2018-06-29T18:13:33.405Z,99984.91
2018-06-29T18:16:01.968Z,99988.22
2018-06-29T18:18:30.949Z,99994.29
2018-06-29T18:21:00.233Z,99991.75
2018-06-29T18:23:29.231Z,99985.89
2018-06-29T18:25:57.669Z,99986.88
2018-06-29T18:28:26.121Z,99989.66
2018-06-29T18:30:55.067Z,99989.30
2018-06-29T18:33:23.957Z,99995.16
2018-06-29T18:35:52.701Z,99991.28
2018-06-29T18:38:21.281Z,100010.42
2018-06-29T18:40:59.205Z,100001.88
2018-06-29T18:43:28.135Z,100001.89
2018-06-29T18:45:56.727Z,100008.18
2018-06-29T18:48:25.396Z,100000.80
2018-06-29T18:50:54.831Z,100004.72
2018-06-29T18:53:24.029Z,100013.72
2018-06-29T18:55:54.459Z,100009.44
2018-06-29T18:58:22.945Z,100017.28
2018-06-29T19:00:51.579Z,100023.16
2018-06-29T19:03:19.971Z,100016.95
2018-06-29T19:05:49.053Z,100022.06
2018-06-29T19:08:19.009Z,100028.09
2018-06-29T19:10:47.835Z,100022.27
2018-06-29T19:13:16.772Z,100024.81
2018-06-29T19:15:48.765Z,100025.78
2018-06-29T19:18:18.890Z,100028.92
2018-06-29T19:20:57.083Z,100029.33
2018-06-29T19:23:26.178Z,100037.31
2018-06-29T19:25:54.585Z,100036.34
2018-06-29T19:28:23.973Z,100034.39
2018-06-29T19:30:52.779Z,100038.88
2018-06-29T19:33:21.872Z,100035.55
2018-06-29T19:35:50.731Z,100046.10
2018-06-29T19:38:19.637Z,100045.70
2018-06-29T19:40:48.767Z,100047.27
2018-06-29T19:43:17.390Z,100046.31
2018-06-29T19:45:46.419Z,100052.16
2018-06-29T19:48:16.747Z,100053.16
2018-06-29T19:50:50.169Z,100052.77
2018-06-29T19:53:20.296Z,100059.78
2018-06-29T19:55:49.624Z,100066.80
2018-06-29T19:58:18.397Z,100071.11
2018-06-29T20:00:47.275Z,100085.91
2018-06-29T20:03:16.929Z,100084.94
2018-06-29T20:05:46.135Z,100088.06
2018-06-29T20:08:15.243Z,100097.36
2018-06-29T20:10:44.303Z,100097.41
2018-06-29T20:13:12.300Z,100104.81
2018-06-29T20:15:41.343Z,100118.01
2018-06-29T20:18:11.151Z,100116.86
2018-06-29T20:20:39.903Z,100117.98
2018-06-29T20:23:09.924Z,100116.80
2018-06-29T20:25:38.967Z,100120.69
2018-06-29T20:28:07.983Z,100125.94
2018-06-29T20:30:36.808Z,100124.36
2018-06-29T20:33:05.627Z,100128.76
2018-06-29T20:35:34.206Z,100136.34
2018-06-29T20:38:02.835Z,100134.78
2018-06-29T20:40:31.304Z,100137.30
2018-06-29T20:43:00.825Z,100136.73
2018-06-29T20:45:29.356Z,100146.05
2018-06-29T20:48:00.065Z,100150.30
2018-06-29T20:50:29.065Z,100151.84
2018-06-29T20:52:57.829Z,100165.00
2018-06-29T20:55:26.595Z,100166.95
2018-06-29T20:57:55.157Z,100165.14
2018-06-29T21:00:24.722Z,100172.27
2018-06-29T21:02:53.237Z,100183.66
2018-06-29T21:05:21.826Z,100184.78
2018-06-29T21:07:50.664Z,100187.86
2018-06-29T21:10:19.125Z,100188.63
2018-06-29T21:12:48.613Z,100199.48
2018-06-29T21:15:17.599Z,100198.64
2018-06-29T21:17:46.105Z,100200.52
2018-06-29T21:20:14.631Z,100204.52
2018-06-29T21:22:48.297Z,100211.83
2018-06-29T21:25:16.815Z,100215.50
2018-06-29T21:27:45.317Z,100220.30
2018-06-29T21:30:14.525Z,100216.86
2018-06-29T21:32:43.634Z,100224.20
2018-06-29T21:35:13.131Z,100227.47
2018-06-29T21:37:42.378Z,100244.92
2018-06-29T21:40:11.231Z,100251.84
2018-06-29T21:42:40.027Z,100249.45
2018-06-29T21:45:08.805Z,100243.59
2018-06-29T21:47:38.093Z,100248.54
2018-06-29T21:50:10.939Z,100250.65
2018-06-29T21:52:53.193Z,100257.23
2018-06-29T21:55:21.584Z,100254.09
2018-06-29T21:57:50.148Z,100255.64
2018-06-29T22:00:19.732Z,100261.84
2018-06-29T22:05:43.057Z,100261.45
2018-06-29T22:08:12.385Z,100261.14
2018-06-29T22:10:42.726Z,100266.67
2018-06-29T22:13:11.897Z,100265.59
2018-06-29T22:15:41.574Z,100269.42
2018-06-29T22:18:10.855Z,100273.16
2018-06-29T22:20:39.899Z,100280.10
2018-06-29T22:23:08.639Z,100289.14
2018-06-29T22:25:38.669Z,100289.91
2018-06-29T22:28:08.105Z,100293.19
2018-06-29T22:30:37.624Z,100290.63
2018-06-29T22:33:06.363Z,100294.39
2018-06-29T22:35:35.153Z,100291.37
2018-06-29T22:38:04.036Z,100294.85
2018-06-29T22:40:32.783Z,100292.27
2018-06-29T22:43:01.525Z,100297.47
2018-06-29T22:45:30.121Z,100297.19
2018-06-29T22:47:59.437Z,100309.78
2018-06-29T22:50:27.867Z,100307.16
2018-06-29T22:52:56.277Z,100313.20
2018-06-29T22:55:24.881Z,100314.19
2018-06-29T22:57:53.653Z,100313.89
2018-06-29T23:00:23.165Z,100313.20
2018-06-29T23:02:52.521Z,100314.09
2018-06-29T23:05:21.123Z,100319.08
2018-06-29T23:07:49.513Z,100320.44
2018-06-29T23:10:17.861Z,100322.52
2018-06-29T23:12:46.437Z,100319.89
2018-06-29T23:15:14.938Z,100320.84
2018-06-29T23:17:43.546Z,100324.10
2018-06-29T23:20:11.998Z,100330.62
2018-06-29T23:22:49.855Z,100332.05
2018-06-29T23:25:18.231Z,100332.13
2018-06-29T23:27:46.608Z,100332.49
2018-06-29T23:30:15.254Z,100335.42
2018-06-29T23:32:43.715Z,100327.91
2018-06-29T23:35:12.161Z,100331.34
2018-06-29T23:37:40.637Z,100328.69
2018-06-29T23:40:09.074Z,100333.27
2018-06-29T23:42:37.717Z,100333.97
2018-06-29T23:45:06.471Z,100327.92
2018-06-29T23:47:34.863Z,100334.03
2018-06-29T23:50:03.216Z,100340.66
2018-06-29T23:52:31.687Z,100336.67
2018-06-29T23:55:00.105Z,100339.61
2018-06-29T23:57:28.797Z,100341.59
2018-06-29T23:59:57.161Z,100332.77
